createdAt,value
2018-05-19T00:01:47.976Z,72.30
2018-05-19T00:04:16.869Z,72.30
2018-05-19T00:06:45.617Z,72.30
2018-05-19T00:09:16.002Z,72.30
2018-05-19T00:11:45.083Z,72.30
2018-05-19T00:14:13.388Z,72.40
2018-05-19T00:16:42.848Z,72.40
2018-05-19T00:19:11.767Z,72.40
2018-05-19T00:21:40.611Z,72.50
2018-05-19T00:24:09.729Z,72.40
2018-05-19T00:26:38.218Z,72.40
2018-05-19T00:29:06.436Z,72.50
2018-05-19T00:31:34.669Z,72.50
2018-05-19T00:34:03.017Z,72.50
2018-05-19T00:36:31.469Z,72.60
2018-05-19T00:38:59.791Z,72.50
2018-05-19T00:41:28.235Z,72.50
2018-05-19T00:43:56.637Z,72.70
2018-05-19T00:46:25.413Z,72.80
2018-05-19T00:48:53.903Z,72.70
2018-05-19T00:51:22.664Z,72.80
2018-05-19T00:53:51.752Z,72.90
2018-05-19T00:56:20.337Z,72.70
2018-05-19T00:58:49.948Z,72.70
2018-05-19T01:01:19.610Z,72.70
2018-05-19T01:03:48.162Z,72.70
2018-05-19T01:06:16.698Z,72.80
2018-05-19T01:08:47.937Z,72.80
2018-05-19T01:11:17.295Z,72.80
2018-05-19T01:13:46.744Z,72.80
2018-05-19T01:16:16.411Z,72.80
2018-05-19T01:18:45.891Z,72.70
2018-05-19T01:21:15.599Z,72.70
2018-05-19T01:23:45.481Z,72.50
2018-05-19T01:26:14.129Z,72.40
2018-05-19T01:28:43.546Z,72.60
2018-05-19T01:31:12.325Z,72.60
2018-05-19T01:33:43.072Z,72.80
2018-05-19T01:36:12.777Z,72.80
2018-05-19T01:38:42.380Z,72.90
2018-05-19T01:41:11.001Z,73.10
2018-05-19T01:43:39.713Z,73.10
2018-05-19T01:46:08.213Z,73.10
2018-05-19T01:48:37.900Z,73.10
2018-05-19T01:51:06.868Z,73.30
2018-05-19T01:53:36.238Z,73.20
2018-05-19T01:56:05.994Z,73.20
2018-05-19T01:58:34.866Z,73.10
2018-05-19T02:01:04.957Z,73.20
2018-05-19T02:03:34.774Z,73.20
2018-05-19T02:06:03.888Z,73.10
2018-05-19T02:08:33.311Z,73.10
2018-05-19T02:11:03.202Z,73.10
2018-05-19T02:13:32.327Z,73.10
2018-05-19T02:16:01.432Z,72.80
2018-05-19T02:18:30.504Z,72.90
2018-05-19T02:20:59.566Z,72.80
2018-05-19T02:23:28.584Z,72.80
2018-05-19T02:25:58.079Z,72.90
2018-05-19T02:28:27.181Z,72.90
2018-05-19T02:30:56.716Z,73.10
2018-05-19T02:33:25.896Z,73.30
2018-05-19T02:35:55.158Z,73.40
2018-05-19T02:38:23.816Z,73.40
2018-05-19T02:40:52.452Z,73.20
2018-05-19T02:43:21.577Z,73.10
2018-05-19T02:45:50.141Z,73.00
2018-05-19T02:48:19.152Z,73.00
2018-05-19T02:50:48.121Z,73.00
2018-05-19T02:53:17.060Z,73.00
2018-05-19T02:55:45.712Z,73.00
2018-05-19T02:58:14.712Z,73.10
2018-05-19T03:00:43.502Z,73.20
2018-05-19T03:03:12.616Z,73.40
2018-05-19T03:05:41.362Z,73.40
2018-05-19T03:08:10.401Z,73.60
2018-05-19T03:10:39.459Z,73.60
2018-05-19T03:13:07.992Z,73.60
2018-05-19T03:15:36.950Z,73.60
2018-05-19T03:18:05.988Z,73.60
2018-05-19T03:20:35.344Z,73.70
2018-05-19T03:23:04.610Z,73.70
2018-05-19T03:25:33.503Z,73.70
2018-05-19T03:28:02.877Z,73.70
2018-05-19T03:30:32.362Z,73.70
2018-05-19T03:33:01.372Z,73.80
2018-05-19T03:35:30.591Z,74.00
2018-05-19T03:37:59.891Z,73.90
2018-05-19T03:40:29.077Z,73.90
2018-05-19T03:42:58.371Z,73.90
2018-05-19T03:45:27.281Z,73.90
2018-05-19T03:47:56.106Z,73.80
2018-05-19T03:50:24.502Z,73.80
2018-05-19T03:52:53.776Z,74.00
2018-05-19T03:55:22.686Z,74.10
2018-05-19T03:58:03.703Z,74.10
2018-05-19T04:00:44.152Z,74.20
2018-05-19T04:03:12.513Z,74.20
2018-05-19T04:05:41.646Z,74.30
2018-05-19T04:08:09.894Z,74.30
2018-05-19T04:10:38.850Z,74.40
2018-05-19T04:13:08.230Z,74.40
2018-05-19T04:15:37.537Z,74.40
2018-05-19T04:18:06.627Z,74.60
2018-05-19T04:20:35.770Z,74.60
2018-05-19T04:23:04.826Z,74.40
2018-05-19T04:25:33.803Z,74.50
2018-05-19T04:28:02.596Z,74.60
2018-05-19T04:30:31.677Z,74.50
2018-05-19T04:33:00.133Z,74.30
2018-05-19T04:35:28.999Z,74.10
2018-05-19T04:37:58.104Z,73.90
2018-05-19T04:40:26.859Z,73.90
2018-05-19T04:42:54.995Z,74.00
2018-05-19T04:45:24.486Z,73.80
2018-05-19T04:47:53.500Z,73.80
2018-05-19T04:50:21.909Z,73.80
2018-05-19T04:52:51.056Z,73.80
2018-05-19T04:55:20.013Z,73.50
2018-05-19T04:57:48.659Z,73.50
2018-05-19T05:00:18.042Z,73.90
2018-05-19T05:02:46.311Z,73.90
2018-05-19T05:05:15.101Z,73.90
2018-05-19T05:07:43.527Z,73.70
2018-05-19T05:10:11.801Z,73.80
2018-05-19T05:12:40.161Z,73.60
2018-05-19T05:15:09.127Z,73.40
2018-05-19T05:17:37.943Z,73.40
2018-05-19T05:20:07.098Z,73.40
2018-05-19T05:22:35.854Z,73.50
2018-05-19T05:25:04.772Z,73.20
2018-05-19T05:27:33.597Z,73.20
2018-05-19T05:30:02.245Z,73.20
2018-05-19T05:32:30.876Z,72.80
2018-05-19T05:34:59.895Z,72.80
2018-05-19T05:37:28.378Z,72.60
2018-05-19T05:39:57.474Z,72.20
2018-05-19T05:42:26.526Z,70.70
2018-05-19T05:44:55.056Z,70.70
2018-05-19T05:47:24.263Z,71.00
2018-05-19T05:49:53.217Z,71.00
2018-05-19T05:52:22.076Z,70.90
2018-05-19T05:54:50.571Z,70.80
2018-05-19T05:57:19.416Z,70.90
2018-05-19T05:59:48.330Z,70.40
2018-05-19T06:02:17.841Z,69.90
2018-05-19T06:04:46.351Z,69.90
2018-05-19T06:07:15.426Z,69.70
2018-05-19T06:09:43.855Z,69.60
2018-05-19T06:12:12.985Z,69.50
2018-05-19T06:14:42.447Z,69.50
2018-05-19T06:17:11.197Z,69.30
2018-05-19T06:19:40.030Z,69.20
2018-05-19T06:22:08.869Z,69.20
2018-05-19T06:24:37.471Z,68.80
2018-05-19T06:27:06.004Z,68.90
2018-05-19T06:29:34.821Z,69.20
2018-05-19T06:32:03.820Z,69.20
2018-05-19T06:34:32.557Z,69.30
2018-05-19T06:37:00.587Z,69.20
2018-05-19T06:39:29.517Z,69.30
2018-05-19T06:41:57.821Z,68.90
2018-05-19T06:44:25.979Z,68.60
2018-05-19T06:46:54.469Z,68.00
2018-05-19T06:49:23.733Z,67.90
2018-05-19T06:51:52.531Z,67.70
2018-05-19T06:54:21.677Z,67.50
2018-05-19T06:56:50.576Z,67.20
2018-05-19T06:59:19.634Z,67.20
2018-05-19T07:01:48.233Z,67.20
2018-05-19T07:04:16.527Z,67.40
2018-05-19T07:06:44.957Z,64.90
2018-05-19T07:09:14.496Z,64.80
2018-05-19T07:11:43.435Z,64.80
2018-05-19T07:14:12.109Z,64.60
2018-05-19T07:16:41.535Z,63.70
2018-05-19T07:19:09.652Z,63.70
2018-05-19T07:21:38.067Z,63.20
2018-05-19T07:24:06.977Z,62.60
2018-05-19T07:26:36.520Z,62.80
2018-05-19T07:29:05.339Z,61.90
2018-05-19T07:31:33.514Z,61.90
2018-05-19T07:34:02.690Z,61.50
2018-05-19T07:36:31.604Z,60.40
2018-05-19T07:39:00.270Z,60.40
2018-05-19T07:41:29.588Z,61.40
2018-05-19T07:43:57.900Z,61.30
2018-05-19T07:46:25.829Z,60.50
2018-05-19T07:48:53.898Z,59.60
2018-05-19T07:51:22.749Z,59.10
2018-05-19T07:53:51.067Z,58.50
2018-05-19T07:56:19.714Z,58.90
2018-05-19T07:58:48.342Z,59.50
2018-05-19T08:01:16.959Z,58.60
2018-05-19T08:03:45.810Z,58.00
2018-05-19T08:06:14.363Z,57.40
2018-05-19T08:08:43.804Z,56.20
2018-05-19T08:11:12.113Z,56.20
2018-05-19T08:13:40.824Z,56.30
2018-05-19T08:16:09.425Z,56.30
2018-05-19T08:18:37.618Z,56.80
2018-05-19T08:21:05.737Z,56.60
2018-05-19T08:23:34.069Z,56.10
2018-05-19T08:26:02.748Z,56.60
2018-05-19T08:28:31.514Z,55.00
2018-05-19T08:30:59.382Z,53.80
2018-05-19T08:33:27.998Z,54.80
2018-05-19T08:35:56.650Z,54.80
2018-05-19T08:38:25.401Z,54.30
2018-05-19T08:40:53.738Z,54.80
2018-05-19T08:43:22.484Z,54.60
2018-05-19T08:45:51.125Z,55.00
2018-05-19T08:48:19.685Z,54.30
2018-05-19T08:50:48.529Z,52.60
2018-05-19T08:53:16.498Z,52.50
2018-05-19T08:55:44.668Z,52.60
2018-05-19T08:58:12.894Z,52.50
2018-05-19T09:00:41.725Z,52.50
2018-05-19T09:03:10.405Z,52.30
2018-05-19T09:05:39.146Z,52.50
2018-05-19T09:08:07.787Z,52.40
2018-05-19T09:10:36.760Z,50.90
2018-05-19T09:13:05.319Z,50.90
2018-05-19T09:15:34.095Z,50.60
2018-05-19T09:18:03.199Z,50.70
2018-05-19T09:20:31.267Z,50.00
2018-05-19T09:22:59.958Z,49.00
2018-05-19T09:25:29.209Z,48.90
2018-05-19T09:27:57.969Z,49.00
2018-05-19T09:30:26.494Z,48.80
2018-05-19T09:32:54.698Z,47.10
2018-05-19T09:35:23.983Z,46.70
2018-05-19T09:37:52.259Z,46.70
2018-05-19T09:40:21.151Z,45.20
2018-05-19T09:42:49.958Z,45.20
2018-05-19T09:45:18.395Z,45.20
2018-05-19T09:47:46.917Z,45.70
2018-05-19T09:50:15.445Z,45.70
2018-05-19T09:52:43.742Z,45.30
2018-05-19T09:55:12.108Z,45.40
2018-05-19T09:57:41.103Z,45.30
2018-05-19T10:00:09.537Z,45.20
2018-05-19T10:02:38.077Z,44.60
2018-05-19T10:05:07.412Z,44.60
2018-05-19T10:07:35.969Z,44.60
2018-05-19T10:10:04.939Z,45.50
2018-05-19T10:12:33.984Z,46.30
2018-05-19T10:15:02.585Z,46.30
2018-05-19T10:17:31.194Z,47.20
2018-05-19T10:19:59.436Z,47.30
2018-05-19T10:22:28.301Z,48.40
2018-05-19T10:24:57.095Z,48.10
2018-05-19T10:27:25.693Z,48.00
2018-05-19T10:29:53.968Z,48.30
2018-05-19T10:32:22.801Z,48.60
2018-05-19T10:34:51.609Z,48.60
2018-05-19T10:37:20.106Z,48.00
2018-05-19T10:39:48.446Z,48.50
2018-05-19T10:42:16.953Z,48.30
2018-05-19T10:44:45.865Z,49.10
2018-05-19T10:47:14.625Z,50.30
2018-05-19T10:49:42.878Z,50.30
2018-05-19T10:52:11.594Z,49.50
2018-05-19T10:54:40.273Z,49.80
2018-05-19T10:57:09.249Z,50.70
2018-05-19T10:59:37.992Z,50.50
2018-05-19T11:02:06.523Z,50.00
2018-05-19T11:04:35.221Z,50.20
2018-05-19T11:07:03.824Z,49.60
2018-05-19T11:09:32.337Z,50.30
2018-05-19T11:12:03.071Z,49.80
2018-05-19T11:14:32.371Z,49.60
2018-05-19T11:17:01.020Z,49.40
2018-05-19T11:19:29.789Z,49.40
2018-05-19T11:21:58.852Z,49.50
2018-05-19T11:24:28.162Z,49.00
2018-05-19T11:26:56.297Z,49.00
2018-05-19T11:29:24.927Z,48.70
2018-05-19T11:31:53.065Z,48.80
2018-05-19T11:34:22.474Z,48.10
2018-05-19T11:36:51.603Z,48.40
2018-05-19T11:39:20.159Z,48.20
2018-05-19T11:41:48.235Z,48.50
2018-05-19T11:44:16.623Z,48.00
2018-05-19T11:46:45.243Z,48.30
2018-05-19T11:49:13.494Z,48.10
2018-05-19T11:51:42.082Z,48.10
2018-05-19T11:54:10.166Z,47.70
2018-05-19T11:56:38.274Z,47.80
2018-05-19T11:59:07.362Z,48.70
2018-05-19T12:01:36.469Z,48.30
2018-05-19T12:04:05.941Z,47.90
2018-05-19T12:06:34.824Z,47.90
2018-05-19T12:09:03.166Z,47.60
2018-05-19T12:11:32.149Z,47.60
2018-05-19T12:14:00.465Z,47.60
2018-05-19T12:16:28.569Z,47.60
2018-05-19T12:18:57.484Z,47.60
2018-05-19T12:21:26.175Z,47.10
2018-05-19T12:23:54.841Z,47.10
2018-05-19T12:26:23.342Z,46.50
2018-05-19T12:28:51.863Z,47.00
2018-05-19T12:31:21.339Z,46.80
2018-05-19T12:33:49.915Z,46.80
2018-05-19T12:36:18.799Z,47.30
2018-05-19T12:38:47.612Z,47.30
2018-05-19T12:41:16.355Z,47.20
2018-05-19T12:43:44.724Z,47.30
2018-05-19T12:46:13.157Z,47.30
2018-05-19T12:48:42.080Z,46.60
2018-05-19T12:51:10.322Z,47.30
2018-05-19T12:53:38.662Z,46.50
2018-05-19T12:56:07.172Z,46.40
2018-05-19T12:58:36.380Z,47.10
2018-05-19T13:01:05.668Z,46.80
2018-05-19T13:03:34.605Z,46.70
2018-05-19T13:06:02.867Z,46.50
2018-05-19T13:08:31.452Z,46.40
2018-05-19T13:11:00.100Z,46.00
2018-05-19T13:13:28.258Z,46.40
2018-05-19T13:15:57.765Z,47.40
2018-05-19T13:18:26.288Z,47.40
2018-05-19T13:20:56.306Z,46.10
2018-05-19T13:23:25.115Z,46.10
2018-05-19T13:25:54.213Z,46.00
2018-05-19T13:28:22.873Z,46.00
2018-05-19T13:30:51.824Z,46.30
2018-05-19T13:33:20.802Z,46.60
2018-05-19T13:35:49.309Z,46.30
2018-05-19T13:38:18.148Z,46.20
2018-05-19T13:40:47.419Z,45.80
2018-05-19T13:43:16.335Z,46.90
2018-05-19T13:45:45.232Z,46.60
2018-05-19T13:48:14.774Z,46.40
2018-05-19T13:50:44.232Z,45.30
2018-05-19T13:53:12.922Z,45.30
2018-05-19T13:55:41.420Z,45.60
2018-05-19T13:58:10.399Z,45.40
2018-05-19T14:00:38.537Z,45.80
2018-05-19T14:03:07.245Z,45.30
2018-05-19T14:05:36.126Z,45.80
2018-05-19T14:08:04.365Z,45.50
2018-05-19T14:10:33.525Z,44.80
2018-05-19T14:13:02.973Z,44.80
2018-05-19T14:15:33.207Z,45.10
2018-05-19T14:18:02.140Z,45.10
2018-05-19T14:20:31.048Z,45.10
2018-05-19T14:23:00.448Z,45.10
2018-05-19T14:25:28.686Z,45.10
2018-05-19T14:27:57.362Z,45.60
2018-05-19T14:30:25.742Z,45.30
2018-05-19T14:32:54.555Z,45.30
2018-05-19T14:35:23.227Z,45.20
2018-05-19T14:37:51.853Z,44.80
2018-05-19T14:40:20.593Z,44.80
2018-05-19T14:42:49.411Z,44.80
2018-05-19T14:45:18.487Z,44.40
2018-05-19T14:47:46.926Z,44.20
2018-05-19T14:50:15.417Z,44.40
2018-05-19T14:52:44.375Z,44.30
2018-05-19T14:55:12.657Z,43.90
2018-05-19T14:57:41.203Z,43.90
2018-05-19T15:00:10.028Z,43.90
2018-05-19T15:02:38.591Z,43.40
2018-05-19T15:05:07.400Z,43.80
2018-05-19T15:07:36.013Z,43.80
2018-05-19T15:10:04.412Z,44.00
2018-05-19T15:12:33.475Z,44.40
2018-05-19T15:15:02.994Z,44.30
2018-05-19T15:17:31.767Z,44.30
2018-05-19T15:20:00.409Z,44.30
2018-05-19T15:22:29.896Z,44.10
2018-05-19T15:24:58.427Z,44.40
2018-05-19T15:27:27.482Z,44.10
2018-05-19T15:29:56.494Z,43.90
2018-05-19T15:32:24.538Z,44.50
2018-05-19T15:34:52.809Z,43.70
2018-05-19T15:37:21.465Z,43.90
2018-05-19T15:39:51.779Z,44.00
2018-05-19T15:42:20.353Z,44.00
2018-05-19T15:44:50.333Z,43.90
2018-05-19T15:47:18.483Z,43.90
2018-05-19T15:49:47.268Z,43.80
2018-05-19T15:52:16.404Z,44.30
2018-05-19T15:54:44.949Z,43.80
2018-05-19T15:57:13.044Z,44.20
2018-05-19T15:59:41.972Z,44.40
2018-05-19T16:02:10.865Z,44.50
2018-05-19T16:04:39.479Z,44.40
2018-05-19T16:07:07.996Z,44.20
2018-05-19T16:09:37.043Z,43.70
2018-05-19T16:12:05.798Z,44.10
2018-05-19T16:14:35.930Z,44.10
2018-05-19T16:17:03.669Z,44.10
2018-05-19T16:19:31.848Z,44.10
2018-05-19T16:22:00.230Z,43.80
2018-05-19T16:24:28.727Z,44.00
2018-05-19T16:26:57.745Z,44.20
2018-05-19T16:29:26.113Z,44.10
2018-05-19T16:31:54.327Z,44.00
2018-05-19T16:34:23.192Z,44.20
2018-05-19T16:36:51.682Z,43.80
2018-05-19T16:39:20.923Z,44.10
2018-05-19T16:41:51.158Z,44.30
2018-05-19T16:44:20.434Z,43.60
2018-05-19T16:46:48.919Z,43.40
2018-05-19T16:49:18.038Z,43.80
2018-05-19T16:51:46.890Z,43.50
2018-05-19T16:54:15.565Z,43.60
2018-05-19T16:56:44.780Z,43.60
2018-05-19T16:59:13.522Z,44.30
2018-05-19T17:01:42.167Z,44.20
2018-05-19T17:04:11.058Z,44.70
2018-05-19T17:06:39.674Z,44.60
2018-05-19T17:09:08.895Z,44.20
2018-05-19T17:11:37.146Z,44.20
2018-05-19T17:14:06.353Z,44.50
2018-05-19T17:16:34.592Z,44.50
2018-05-19T17:19:02.311Z,44.50
2018-05-19T17:21:30.640Z,44.50
2018-05-19T17:23:59.616Z,44.80
2018-05-19T17:26:27.966Z,44.90
2018-05-19T17:28:56.311Z,44.90
2018-05-19T17:31:24.813Z,45.20
2018-05-19T17:33:53.174Z,45.20
2018-05-19T17:36:22.381Z,45.50
2018-05-19T17:38:51.227Z,45.50
2018-05-19T17:41:20.070Z,45.90
2018-05-19T17:43:48.562Z,46.00
2018-05-19T17:46:17.242Z,46.30
2018-05-19T17:48:46.067Z,46.40
2018-05-19T17:51:14.313Z,46.30
2018-05-19T17:53:43.669Z,46.30
2018-05-19T17:56:13.017Z,46.50
2018-05-19T17:58:42.040Z,46.40
2018-05-19T18:01:10.640Z,46.40
2018-05-19T18:03:39.413Z,46.60
2018-05-19T18:06:08.225Z,46.10
2018-05-19T18:08:36.926Z,46.30
2018-05-19T18:11:05.728Z,46.40
2018-05-19T18:13:34.170Z,46.40
2018-05-19T18:16:02.637Z,46.30
2018-05-19T18:18:31.645Z,45.90
2018-05-19T18:21:00.320Z,45.90
2018-05-19T18:23:28.900Z,46.00
2018-05-19T18:25:58.029Z,45.70
2018-05-19T18:28:26.092Z,45.70
2018-05-19T18:30:54.640Z,46.10
2018-05-19T18:33:23.509Z,46.40
2018-05-19T18:35:51.837Z,46.70
2018-05-19T18:38:21.043Z,47.10
2018-05-19T18:40:49.488Z,47.10
2018-05-19T18:43:18.784Z,47.50
2018-05-19T18:45:47.339Z,47.50
2018-05-19T18:48:15.553Z,47.70
2018-05-19T18:50:43.907Z,48.30
2018-05-19T18:53:13.705Z,48.10
2018-05-19T18:55:42.344Z,48.10
2018-05-19T18:58:10.511Z,48.70
2018-05-19T19:00:39.115Z,48.50
2018-05-19T19:03:08.525Z,48.80
2018-05-19T19:05:37.013Z,50.20
2018-05-19T19:08:05.547Z,48.90
2018-05-19T19:10:34.221Z,49.00
2018-05-19T19:13:02.865Z,49.20
2018-05-19T19:15:31.257Z,49.80
2018-05-19T19:18:00.345Z,49.50
2018-05-19T19:20:29.149Z,49.50
2018-05-19T19:22:58.224Z,49.50
2018-05-19T19:25:26.490Z,49.50
2018-05-19T19:27:54.666Z,51.10
2018-05-19T19:30:23.279Z,51.00
2018-05-19T19:32:51.731Z,52.00
2018-05-19T19:35:20.256Z,50.20
2018-05-19T19:37:49.051Z,51.50
2018-05-19T19:40:18.831Z,51.50
2018-05-19T19:42:47.253Z,52.10
2018-05-19T19:45:16.197Z,51.90
2018-05-19T19:47:44.822Z,52.30
2018-05-19T19:50:13.355Z,52.60
2018-05-19T19:52:42.046Z,52.10
2018-05-19T19:55:10.996Z,52.90
2018-05-19T19:57:39.835Z,53.10
2018-05-19T20:00:08.483Z,53.30
2018-05-19T20:02:37.453Z,53.30
2018-05-19T20:05:06.033Z,53.30
2018-05-19T20:07:34.516Z,53.40
2018-05-19T20:10:03.440Z,53.60
2018-05-19T20:12:32.253Z,54.10
2018-05-19T20:15:00.917Z,54.10
2018-05-19T20:17:31.906Z,54.30
2018-05-19T20:20:00.492Z,54.60
2018-05-19T20:22:28.937Z,55.10
2018-05-19T20:24:58.245Z,55.00
2018-05-19T20:27:27.040Z,55.30
2018-05-19T20:29:55.798Z,55.10
2018-05-19T20:32:24.084Z,55.40
2018-05-19T20:34:52.331Z,55.60
2018-05-19T20:37:21.078Z,56.00
2018-05-19T20:39:50.421Z,56.40
2018-05-19T20:42:18.913Z,56.50
2018-05-19T20:44:48.056Z,56.50
2018-05-19T20:47:17.154Z,56.20
2018-05-19T20:49:45.354Z,56.60
2018-05-19T20:52:14.519Z,56.60
2018-05-19T20:54:43.395Z,56.90
2018-05-19T20:57:11.719Z,56.90
2018-05-19T20:59:39.977Z,57.50
2018-05-19T21:02:08.841Z,57.50
2018-05-19T21:04:37.731Z,58.00
2018-05-19T21:07:07.078Z,58.20
2018-05-19T21:09:35.636Z,58.20
2018-05-19T21:12:04.061Z,58.40
2018-05-19T21:14:32.038Z,58.50
2018-05-19T21:17:01.416Z,59.20
2018-05-19T21:19:30.754Z,59.00
2018-05-19T21:21:59.035Z,59.00
2018-05-19T21:24:27.429Z,59.70
2018-05-19T21:26:55.531Z,59.70
2018-05-19T21:29:24.364Z,60.00
2018-05-19T21:31:52.667Z,60.10
2018-05-19T21:34:21.152Z,60.20
2018-05-19T21:36:49.269Z,60.70
2018-05-19T21:39:17.698Z,60.80
2018-05-19T21:41:45.800Z,60.50
2018-05-19T21:44:13.943Z,61.10
2018-05-19T21:46:43.145Z,61.30
2018-05-19T21:49:12.289Z,61.40
2018-05-19T21:51:40.736Z,61.80
2018-05-19T21:54:08.575Z,61.70
2018-05-19T21:56:37.083Z,62.00
2018-05-19T21:59:05.448Z,61.90
2018-05-19T22:01:34.345Z,62.20
2018-05-19T22:04:02.822Z,62.20
2018-05-19T22:06:31.692Z,62.20
2018-05-19T22:08:59.779Z,62.20
2018-05-19T22:11:29.809Z,62.00
2018-05-19T22:13:58.518Z,62.00
2018-05-19T22:16:26.623Z,62.00
2018-05-19T22:18:55.396Z,62.30
2018-05-19T22:21:23.642Z,62.40
2018-05-19T22:23:52.535Z,62.60
2018-05-19T22:26:21.368Z,62.80
2018-05-19T22:28:50.315Z,62.90
2018-05-19T22:31:19.024Z,63.20
2018-05-19T22:33:47.631Z,63.20
2018-05-19T22:36:15.865Z,63.20
2018-05-19T22:38:45.026Z,63.20
2018-05-19T22:41:13.536Z,63.20
2018-05-19T22:43:42.378Z,62.80
2018-05-19T22:46:11.374Z,62.90
2018-05-19T22:48:40.209Z,63.40
2018-05-19T22:51:09.520Z,63.40
2018-05-19T22:53:38.289Z,63.40
2018-05-19T22:56:07.178Z,63.60
2018-05-19T22:58:35.771Z,63.90
2018-05-19T23:01:05.504Z,64.20
2018-05-19T23:03:34.371Z,64.20
2018-05-19T23:06:02.790Z,64.10
2018-05-19T23:08:31.066Z,64.00
2018-05-19T23:11:00.405Z,64.40
2018-05-19T23:13:29.068Z,64.20
2018-05-19T23:15:57.700Z,64.70
2018-05-19T23:18:27.321Z,64.70
2018-05-19T23:20:55.616Z,64.90
2018-05-19T23:23:23.714Z,64.90
2018-05-19T23:25:52.719Z,64.80
2018-05-19T23:28:21.491Z,64.80
2018-05-19T23:30:50.436Z,64.90
2018-05-19T23:33:19.636Z,64.80
2018-05-19T23:35:48.482Z,64.90
2018-05-19T23:38:17.260Z,64.70
2018-05-19T23:40:45.577Z,64.80
2018-05-19T23:43:14.131Z,65.20
2018-05-19T23:45:42.870Z,65.30
2018-05-19T23:48:11.850Z,65.40
2018-05-19T23:50:39.706Z,65.90
2018-05-19T23:53:08.174Z,65.70
2018-05-19T23:55:37.140Z,65.60
2018-05-19T23:58:05.408Z,65.70
